< Typhoon 199816 1999 Season Typhoon 199902 >
Typhoon 199901 (KATE)
General InformationTrack Information on Google MapsDetailed Wind InformationList of All Images || Disaster Info.ResourceGoogle EarthGE AnimationAtom FeedGeoJSON
Detalied Best Track (Time Zone = UTC)
Year Month Day Hour Lat. Long. Pressure (hPa) Wind (kt) Class Image Chart
1999 4 21 18 9.0 126.0 1004 0 2 Image Chart
1999 4 22 00 10.0 126.0 1004 0 2 Image Chart
1999 4 22 06 11.5 125.5 1002 0 2 Image Chart
1999 4 22 12 13.0 125.0 1002 0 2 Image Chart
1999 4 22 18 13.6 125.8 1002 0 2 Image Chart
1999 4 23 00 13.9 126.6 1000 0 2 Image Chart
1999 4 23 06 14.1 126.8 1000 0 2 Image Chart
1999 4 23 12 14.2 127.1 998 35 3 Image Chart
1999 4 23 18 14.7 127.8 996 40 3 Image Chart
1999 4 24 00 14.8 128.6 992 40 3 Image Chart
1999 4 24 06 15.0 129.0 992 40 3 Image Chart
1999 4 24 12 15.3 129.8 992 40 3 Image Chart
1999 4 24 18 16.0 130.5 990 40 3 Image Chart
1999 4 25 00 16.8 130.9 990 45 3 Image Chart
1999 4 25 06 17.6 131.3 985 50 4 Image Chart
1999 4 25 12 18.5 132.0 985 50 4 Image Chart
1999 4 25 18 19.3 132.4 980 55 4 Image Chart
1999 4 26 00 20.0 133.2 980 55 4 Image Chart
1999 4 26 06 20.6 133.9 980 55 4 Image Chart
1999 4 26 12 21.2 134.9 980 50 4 Image Chart
1999 4 26 18 22.0 136.3 980 50 4 Image Chart
1999 4 27 00 23.2 138.2 980 50 4 Image Chart
1999 4 27 06 24.0 140.1 980 50 4 Image Chart
1999 4 27 12 25.1 142.2 980 50 4 Image Chart
1999 4 27 15 25.7 142.9 980 50 4 Image Chart
1999 4 27 18 26.2 143.6 980 50 4 Image Chart
1999 4 27 21 26.6 144.2 980 50 4 Image Chart
1999 4 28 00 27.1 144.9 985 45 3 Image Chart
1999 4 28 06 28.1 147.1 985 45 3 Image Chart
1999 4 28 12 29.1 149.2 992 0 6 Image Chart
1999 4 28 18 30.1 151.7 994 0 6 Image Chart
1999 4 29 00 31.1 154.2 996 0 6 Image Chart
1999 4 29 06 31.5 156.7 996 0 6 Image Chart
1999 4 29 12 32.7 159.4 998 0 6 Image Chart
1999 4 29 18 33.2 161.2 1004 0 6 Image Chart
1999 4 30 00 34.0 162.5 1006 0 6 Image Chart
1999 4 30 06 35.0 163.9 1008 0 6 Image Chart
Japan Meteorological Agency Best Track Data | Correction Date : 2005-03-01
< Typhoon 199816 1999 Season Typhoon 199902 >

Help